Terminal Aerodrome Forecast
Issued by NWS

Home | Current Version | Previous Version | Text Only | Print | Product List | Glossary On
Versions: 1 2 3 4 5 6 7 8 9 10 11 12 13 14 15 16 17 18 19 20
126
FTUS41 KGYX 241720
TAFAUG
TAF
KAUG 241720Z 2418/2518 23006KT P6SM SCT250
     FM242200 19006KT P6SM SCT250
     FM250100 19004KT P6SM SCT250
     FM251300 20007KT P6SM SCT120 BKN250=

USA.gov is the U.S. government's official web portal to all federal, state and local government web resources and services.